Wellington, CO

2:10 PM MDT on July 27, 2016 (GMT -0600)
La Luna Dairy | | Change Station

Elev 5250 ft 40.72 °N, 105.02 °W | Updated 1 minute ago

Clear
Clear
86.0 °F
Feels Like 85 °F
N
8.0
Wind Variable Wind from ESE
Gusts 15.0 mph

Today
High -- | Low -- °F
--% Chance of Precip.
Yesterday
High -- | Low -- °F
Precip. -- in
Pressure 30.15 in
Visibility 5.0 miles
Clouds Clear
Heat Index 85 °F
Dew Point 56 °F
Humidity 36%
Rainfall Not available.
Snow Depth Not available.
5:52 AM 8:20 PM
Last Quarter, 40% visible
METAR KFNL 271955Z AUTO 10004KT 5SM CLR 31/13 A3015 RMK AO1
Pressure 30.15 in
Visibility 5.0 miles
Clouds Clear
Heat Index 85 °F
Dew Point 56 °F
Humidity 36%
Rainfall Not available.
Snow Depth Not available.
5:52 AM 8:20 PM
Last Quarter, 40% visible
METAR KFNL 271955Z AUTO 10004KT 5SM CLR 31/13 A3015 RMK AO1

10-Day Weather Forecast

Almanac

Astronomy

Jul. 27, 2016 Rise Set
Actual Time
Civil Twilight
Nautical Twilight
Astronomical Twilight
Moon
Length of Visible Light
Length of Day
Tomorrow will be .
, % of the Moon is Illuminated

Today's Extremes

State Highs State Lows

Community

WunderPhotos

Upload Photos

1,927,931 photos uploaded!

WunderBlog® & News

Nearby

Air Quality

  Air Quality AQ Index Pollutant
Not available.

Snow Depth

Station Depth Elevation

Earthquake Activity

City Distance Mag. Time & Date
Minimum magnitude displayed is 2.5.

Coastal Water Temperatures

Place Temperature

Stations

Nearby Weather Stations

Station Location Temp. Windchill Dew Point Humidity Wind Precip. Elev Updated Type
                   

Watches & Warnings

There are currently no watches in effect.